createdAt,value
2018-07-13T00:03:29.293Z,59.90
2018-07-13T00:07:33.009Z,59.90
2018-07-13T00:11:36.936Z,60.00
2018-07-13T00:15:50.561Z,60.60
2018-07-13T00:19:54.251Z,60.20
2018-07-13T00:23:57.931Z,60.40
2018-07-13T00:28:01.608Z,60.60
2018-07-13T00:32:05.268Z,60.50
2018-07-13T00:36:08.947Z,60.90
2018-07-13T00:40:12.620Z,61.30
2018-07-13T00:44:16.239Z,60.90
2018-07-13T00:48:19.899Z,61.10
2018-07-13T00:52:23.544Z,61.50
2018-07-13T00:56:27.229Z,61.00
2018-07-13T01:00:32.410Z,60.90
2018-07-13T01:04:36.048Z,61.20
2018-07-13T01:08:39.726Z,61.40
2018-07-13T01:12:44.075Z,61.10
2018-07-13T01:16:47.760Z,61.20
2018-07-13T01:20:51.429Z,61.70
2018-07-13T01:24:55.064Z,62.10
2018-07-13T01:28:58.724Z,63.70
2018-07-13T01:33:02.504Z,63.90
2018-07-13T01:37:06.477Z,63.60
2018-07-13T01:41:10.131Z,63.70
2018-07-13T01:45:13.796Z,64.10
2018-07-13T01:49:17.455Z,63.30
2018-07-13T01:53:21.115Z,64.80
2018-07-13T01:57:24.900Z,65.10
2018-07-13T02:01:28.587Z,63.30
2018-07-13T02:05:32.255Z,63.50
2018-07-13T02:09:35.882Z,64.40
2018-07-13T02:13:39.561Z,66.30
2018-07-13T02:17:43.324Z,64.60
2018-07-13T02:21:46.983Z,64.90
2018-07-13T02:25:50.648Z,66.30
2018-07-13T02:29:54.273Z,66.90
2018-07-13T02:33:58.001Z,64.90
2018-07-13T02:38:01.638Z,66.20
2018-07-13T02:42:05.316Z,67.80
2018-07-13T02:46:09.012Z,67.80
2018-07-13T02:50:12.658Z,66.40
2018-07-13T02:54:16.504Z,65.40
2018-07-13T02:58:20.172Z,65.70
2018-07-13T03:02:23.831Z,66.60
2018-07-13T03:06:27.495Z,66.70
2018-07-13T03:10:31.140Z,66.20
2018-07-13T03:14:34.804Z,66.80
2018-07-13T03:18:38.488Z,65.20
2018-07-13T03:22:42.157Z,64.80
2018-07-13T03:26:45.833Z,67.50
2018-07-13T03:30:49.524Z,65.80
2018-07-13T03:34:53.205Z,65.00
2018-07-13T03:38:56.864Z,64.80
2018-07-13T03:43:14.060Z,64.70
2018-07-13T03:47:17.809Z,67.00
2018-07-13T03:51:21.441Z,66.00
2018-07-13T03:55:25.135Z,66.30
2018-07-13T03:59:28.809Z,66.60
2018-07-13T04:03:32.528Z,66.40
2018-07-13T04:07:36.200Z,67.00
2018-07-13T04:11:40.016Z,66.50
2018-07-13T04:15:43.675Z,68.50
2018-07-13T04:19:47.415Z,67.40
2018-07-13T04:23:51.192Z,68.10
2018-07-13T04:27:55.256Z,67.60
2018-07-13T04:31:58.947Z,67.00
2018-07-13T04:36:02.577Z,67.70
2018-07-13T04:40:06.279Z,68.40
2018-07-13T04:44:09.964Z,69.20
2018-07-13T04:48:13.735Z,68.00
2018-07-13T04:52:17.592Z,68.10
2018-07-13T04:56:21.366Z,68.80
2018-07-13T05:00:25.143Z,67.60
2018-07-13T05:04:28.922Z,69.10
2018-07-13T05:08:32.711Z,67.50
2018-07-13T05:12:36.619Z,68.10
2018-07-13T05:16:40.301Z,68.50
2018-07-13T05:20:44.044Z,68.70
2018-07-13T05:24:47.809Z,67.90
2018-07-13T05:28:51.571Z,67.90
2018-07-13T05:32:55.336Z,67.80
2018-07-13T05:36:59.091Z,67.30
2018-07-13T05:41:02.866Z,68.60
2018-07-13T05:45:06.656Z,68.70
2018-07-13T05:49:10.464Z,70.10
2018-07-13T05:53:14.235Z,69.10
2018-07-13T05:57:18.011Z,68.90
2018-07-13T06:01:21.823Z,68.80
2018-07-13T06:05:25.587Z,68.90
2018-07-13T06:09:29.363Z,68.00
2018-07-13T06:13:33.089Z,67.70
2018-07-13T06:17:36.844Z,69.80
2018-07-13T06:21:40.516Z,68.70
2018-07-13T06:25:44.176Z,68.10
2018-07-13T06:29:47.858Z,68.40
2018-07-13T06:33:51.579Z,68.20
2018-07-13T06:37:55.268Z,68.50
2018-07-13T06:41:58.986Z,68.90
2018-07-13T06:46:02.668Z,69.20
2018-07-13T06:50:06.623Z,68.70
2018-07-13T06:54:10.925Z,69.10
2018-07-13T06:58:25.693Z,69.60
2018-07-13T07:02:40.768Z,68.30
2018-07-13T07:06:44.552Z,69.30
2018-07-13T07:10:48.221Z,69.30
2018-07-13T07:14:51.875Z,69.00
2018-07-13T07:18:55.559Z,68.60
2018-07-13T07:22:59.261Z,68.70
2018-07-13T07:27:02.946Z,68.20
2018-07-13T07:31:06.689Z,68.20
2018-07-13T07:35:10.809Z,68.50
2018-07-13T07:39:14.453Z,68.80
2018-07-13T07:43:18.843Z,68.50
2018-07-13T07:47:22.623Z,69.30
2018-07-13T07:51:26.354Z,68.70
2018-07-13T07:55:30.169Z,68.50
2018-07-13T07:59:33.800Z,68.10
2018-07-13T08:03:37.533Z,69.20
2018-07-13T08:07:41.291Z,68.40
2018-07-13T08:11:45.000Z,68.90
2018-07-13T08:15:48.684Z,68.40
2018-07-13T08:19:52.347Z,70.00
2018-07-13T08:23:56.138Z,69.10
2018-07-13T08:28:01.812Z,68.10
2018-07-13T08:32:05.953Z,68.60
2018-07-13T08:36:09.699Z,69.80
2018-07-13T08:40:13.431Z,68.70
2018-07-13T08:44:17.173Z,68.40
2018-07-13T08:48:20.924Z,69.20
2018-07-13T08:52:24.688Z,68.40
2018-07-13T08:56:28.471Z,68.60
2018-07-13T09:00:32.316Z,68.10
2018-07-13T09:04:36.136Z,67.80
2018-07-13T09:08:39.833Z,68.20
2018-07-13T09:12:43.709Z,68.50
2018-07-13T09:16:47.556Z,67.80
2018-07-13T09:20:51.232Z,68.00
2018-07-13T09:24:54.917Z,67.70
2018-07-13T09:28:58.612Z,67.60
2018-07-13T09:33:02.329Z,67.00
2018-07-13T09:37:06.136Z,67.60
2018-07-13T09:41:09.841Z,67.50
2018-07-13T09:45:13.557Z,67.50
2018-07-13T09:49:17.260Z,67.30
2018-07-13T09:53:21.037Z,67.30
2018-07-13T09:57:24.983Z,67.40
2018-07-13T10:01:28.681Z,67.20
2018-07-13T10:05:32.415Z,67.20
2018-07-13T10:09:36.163Z,67.30
2018-07-13T10:13:40.062Z,67.20
2018-07-13T10:17:43.779Z,67.00
2018-07-13T10:21:48.351Z,67.00
2018-07-13T10:25:56.911Z,67.10
2018-07-13T10:30:02.705Z,67.30
2018-07-13T10:34:07.873Z,66.70
2018-07-13T10:38:11.697Z,66.10
2018-07-13T10:42:15.319Z,65.40
2018-07-13T10:46:19.013Z,66.30
2018-07-13T10:50:22.730Z,66.20
2018-07-13T10:54:26.447Z,66.10
2018-07-13T10:58:30.127Z,66.10
2018-07-13T11:02:33.767Z,65.00
2018-07-13T11:06:37.462Z,65.30
2018-07-13T11:10:41.148Z,64.20
2018-07-13T11:14:44.828Z,64.60
2018-07-13T11:18:48.487Z,64.40
2018-07-13T11:22:52.921Z,64.50
2018-07-13T11:26:56.667Z,64.50
2018-07-13T11:31:00.323Z,65.00
2018-07-13T11:35:04.068Z,64.60
2018-07-13T11:39:08.541Z,64.20
2018-07-13T11:43:12.259Z,62.10
2018-07-13T11:47:15.931Z,63.70
2018-07-13T11:51:19.631Z,62.90
2018-07-13T11:55:23.341Z,61.30
2018-07-13T11:59:27.007Z,61.70
2018-07-13T12:03:30.675Z,61.90
2018-07-13T12:07:34.412Z,62.70
2018-07-13T12:11:38.047Z,63.00
2018-07-13T12:15:41.718Z,62.70
2018-07-13T12:19:48.118Z,63.10
2018-07-13T12:23:51.858Z,63.00
2018-07-13T12:27:55.535Z,61.70
2018-07-13T12:31:59.686Z,59.80
2018-07-13T12:36:03.449Z,61.40
2018-07-13T12:40:07.130Z,60.80
2018-07-13T12:44:10.797Z,61.80
2018-07-13T12:48:14.449Z,60.10
2018-07-13T12:52:18.184Z,60.20
2018-07-13T12:56:21.908Z,59.40
2018-07-13T13:00:25.600Z,58.20
2018-07-13T13:04:29.294Z,60.50
2018-07-13T13:08:33.291Z,60.50
2018-07-13T13:12:37.027Z,59.70
2018-07-13T13:16:40.724Z,59.10
2018-07-13T13:20:44.432Z,59.70
2018-07-13T13:24:48.178Z,58.30
2018-07-13T13:28:51.799Z,58.80
2018-07-13T13:32:55.476Z,59.50
2018-07-13T13:36:59.145Z,58.10
2018-07-13T13:41:02.840Z,58.70
2018-07-13T13:45:06.608Z,57.70
2018-07-13T13:49:10.241Z,58.10
2018-07-13T13:53:13.913Z,58.60
2018-07-13T13:57:17.635Z,58.00
2018-07-13T14:01:21.379Z,57.50
2018-07-13T14:05:25.087Z,56.90
2018-07-13T14:09:28.757Z,57.50
2018-07-13T14:13:32.520Z,57.50
2018-07-13T14:17:36.221Z,57.00
2018-07-13T14:21:39.990Z,56.60
2018-07-13T14:25:43.666Z,55.80
2018-07-13T14:29:47.301Z,55.50
2018-07-13T14:33:51.028Z,52.30
2018-07-13T14:37:54.800Z,54.90
2018-07-13T14:41:58.521Z,55.40
2018-07-13T14:46:02.202Z,54.00
2018-07-13T14:50:05.853Z,52.10
2018-07-13T14:54:09.644Z,53.20
2018-07-13T15:02:16.873Z,52.20
2018-07-13T15:06:20.957Z,52.80
2018-07-13T15:10:24.666Z,53.60
2018-07-13T15:14:28.317Z,53.50
2018-07-13T15:18:32.015Z,54.70
2018-07-13T15:22:35.669Z,53.40
2018-07-13T15:26:39.413Z,52.80
2018-07-13T15:30:43.076Z,52.60
2018-07-13T15:34:46.896Z,50.90
2018-07-13T15:38:50.567Z,49.70
2018-07-13T15:42:54.229Z,51.40
2018-07-13T15:46:57.879Z,49.10
2018-07-13T15:51:01.553Z,51.70
2018-07-13T15:55:06.212Z,51.10
2018-07-13T15:59:09.928Z,50.70
2018-07-13T16:07:14.475Z,49.70
2018-07-13T16:11:18.199Z,50.70
2018-07-13T16:15:21.865Z,52.50
2018-07-13T16:19:25.543Z,52.50
2018-07-13T16:23:29.234Z,50.20
2018-07-13T16:27:32.920Z,51.60
2018-07-13T16:31:36.600Z,52.50
2018-07-13T16:35:40.238Z,52.50
2018-07-13T16:39:43.907Z,51.10
2018-07-13T16:43:47.693Z,50.20
2018-07-13T16:47:51.362Z,51.00
2018-07-13T16:51:55.040Z,51.60
2018-07-13T16:55:58.743Z,52.10
2018-07-13T17:00:02.451Z,52.00
2018-07-13T17:04:06.140Z,52.80
2018-07-13T17:08:09.800Z,52.60
2018-07-13T17:12:13.485Z,52.20
2018-07-13T17:16:17.116Z,52.30
2018-07-13T17:20:20.823Z,52.10
2018-07-13T17:24:24.487Z,53.00
2018-07-13T17:28:28.141Z,52.40
2018-07-13T17:32:31.801Z,52.20
2018-07-13T17:36:35.448Z,52.70
2018-07-13T17:40:39.118Z,53.00
2018-07-13T17:44:42.811Z,53.10
2018-07-13T17:48:46.556Z,53.00
2018-07-13T17:52:50.215Z,52.30
2018-07-13T17:56:53.877Z,53.20
2018-07-13T18:00:57.702Z,52.40
2018-07-13T18:05:01.733Z,52.30
2018-07-13T18:09:06.436Z,51.90
2018-07-13T18:13:10.139Z,53.00
2018-07-13T18:17:13.804Z,53.10
2018-07-13T18:21:17.473Z,53.00
2018-07-13T18:25:21.150Z,53.30
2018-07-13T18:29:24.813Z,53.40
2018-07-13T18:33:28.505Z,53.40
2018-07-13T18:37:32.145Z,53.70
2018-07-13T18:41:35.817Z,53.80
2018-07-13T18:45:39.477Z,53.90
2018-07-13T18:49:43.153Z,53.60
2018-07-13T18:53:46.880Z,53.80
2018-07-13T19:01:53.852Z,54.00
2018-07-13T19:05:57.680Z,54.00
2018-07-13T19:10:01.347Z,54.20
2018-07-13T19:14:05.533Z,54.40
2018-07-13T19:18:09.212Z,54.50
2018-07-13T19:22:12.847Z,54.60
2018-07-13T19:26:16.505Z,54.70
2018-07-13T19:30:20.191Z,54.80
2018-07-13T19:34:23.864Z,55.00
2018-07-13T19:38:27.531Z,55.10
2018-07-13T19:42:31.146Z,55.10
2018-07-13T19:46:34.816Z,55.30
2018-07-13T19:50:38.458Z,55.30
2018-07-13T19:54:42.150Z,55.40
2018-07-13T19:58:45.815Z,55.50
2018-07-13T20:02:49.466Z,55.60
2018-07-13T20:06:53.128Z,55.80
2018-07-13T20:10:56.820Z,56.20
2018-07-13T20:15:00.496Z,55.60
2018-07-13T20:19:04.212Z,55.70
2018-07-13T20:23:07.859Z,55.70
2018-07-13T20:27:11.557Z,55.90
2018-07-13T20:31:15.235Z,56.00
2018-07-13T20:35:18.909Z,55.40
2018-07-13T20:39:22.596Z,56.00
2018-07-13T20:43:26.254Z,56.20
2018-07-13T20:47:29.973Z,56.20
2018-07-13T20:51:33.651Z,56.20
2018-07-13T20:55:37.384Z,57.10
2018-07-13T20:59:41.066Z,56.40
2018-07-13T21:03:44.690Z,56.60
2018-07-13T21:07:48.344Z,56.70
2018-07-13T21:11:52.004Z,56.60
2018-07-13T21:15:55.685Z,56.60
2018-07-13T21:19:59.380Z,56.80
2018-07-13T21:24:03.032Z,56.70
2018-07-13T21:28:06.824Z,56.90
2018-07-13T21:32:10.507Z,56.90
2018-07-13T21:36:14.175Z,56.80
2018-07-13T21:40:17.822Z,56.80
2018-07-13T21:44:21.471Z,56.90
2018-07-13T21:48:25.214Z,57.00
2018-07-13T21:52:28.896Z,57.00
2018-07-13T21:56:32.618Z,57.10
2018-07-13T22:00:36.264Z,57.10
2018-07-13T22:04:39.959Z,57.00
2018-07-13T22:08:43.617Z,57.10
2018-07-13T22:12:47.328Z,57.20
2018-07-13T22:16:51.137Z,57.20
2018-07-13T22:20:54.792Z,57.20
2018-07-13T22:24:58.414Z,57.20
2018-07-13T22:29:02.071Z,57.20
2018-07-13T22:33:05.889Z,57.40
2018-07-13T22:37:09.624Z,57.30
2018-07-13T22:41:13.308Z,57.30
2018-07-13T22:45:16.979Z,57.30
2018-07-13T22:49:20.642Z,57.30
2018-07-13T22:53:24.320Z,57.30
2018-07-13T22:57:28.151Z,57.30
2018-07-13T23:01:32.079Z,58.00
2018-07-13T23:05:35.866Z,57.40
2018-07-13T23:09:39.504Z,57.40
2018-07-13T23:13:43.176Z,57.50
2018-07-13T23:17:46.848Z,57.40
2018-07-13T23:21:50.510Z,57.40
2018-07-13T23:25:54.168Z,57.40
2018-07-13T23:29:57.799Z,57.50
2018-07-13T23:34:01.487Z,57.50
2018-07-13T23:38:05.175Z,57.50
2018-07-13T23:42:08.851Z,57.60
2018-07-13T23:46:12.588Z,57.60
2018-07-13T23:50:16.232Z,57.60
2018-07-13T23:54:19.939Z,57.50
2018-07-13T23:58:23.595Z,57.60
